CheckWX is a tool to help pilots better visualize weather data.  It is not intended as a substitute for an official pre-flight weather briefing.

10:08:46 UTC

KBDR TAF
Igor I Sikorsky Memorial Airport
Bridgeport, Connecticut, USA
KBDR 260830Z 2609/2706 35005KT P6SM FEW011 BKN040 TEMPO 2609/2610 4SM BR BKN011 FM261000 35007KT P6SM SCT250 FM261400 22006KT P6SM FEW050 FM261800 20008KT P6SM SCT050 FM270300 VRB03KT P6SM FEW250

Jun-26@
09:00 UTC

Jun-26 @ 09:00 UTC

Jun-26@
10:00 UTC

Jun-26 @ 10:00 UTC

KBDR 260830Z 2609/2706 35005KT P6SM FEW011 BKN040

Expired

Wind
  • 350° at 5 KTS
Cloud Levels
  • Few at 1,100' AGL
  • Broken at 4,000' AGL

Jun-26@
09:00 UTC

Jun-26 @ 09:00 UTC

Jun-26@
10:00 UTC

Jun-26 @ 10:00 UTC

TEMPO 2609/2610 4SM BR BKN011

Expired

Conditions
Mist
Cloud Levels
  • Broken at 1,100' AGL

Jun-26@
10:00 UTC

Jun-26 @ 10:00 UTC

Jun-26@
14:00 UTC

Jun-26 @ 14:00 UTC

FM261000 35007KT P6SM SCT250

From

From Standard forecast or significant change

Wind
  • 350° at 7 KTS
Cloud Levels
  • Scattered at 25,000' AGL

Jun-26@
14:00 UTC

Jun-26 @ 14:00 UTC

Jun-26@
18:00 UTC

Jun-26 @ 18:00 UTC

FM261400 22006KT P6SM FEW050

From

From Standard forecast or significant change

Wind
  • 220° at 6 KTS
Cloud Levels
  • Few at 5,000' AGL

Jun-26@
18:00 UTC

Jun-26 @ 18:00 UTC

Jun-27@
03:00 UTC

Jun-27 @ 03:00 UTC

FM261800 20008KT P6SM SCT050

From

From Standard forecast or significant change

Wind
  • 200° at 8 KTS
Cloud Levels
  • Scattered at 5,000' AGL

Jun-27@
03:00 UTC

Jun-27 @ 03:00 UTC

Jun-27@
06:00 UTC

Jun-27 @ 06:00 UTC

FM270300 VRB03KT P6SM FEW250

From

From Standard forecast or significant change

Wind
  • Variable at 3 KTS
Cloud Levels
  • Few at 25,000' AGL